Time;durP1;ratioP1;P1;durP2;ratioP2;P2;SDS_P1;SDS_P2;PMS_P1;PMS_P2;Temp;Humidity;BMP_temperature;BMP_pressure;BME280_temperature;BME280_humidity;BME280_pressure;Samples;Min_cycle;Max_cycle;Signal;HPM_P1;HPM_P2
2021/01/27 00:04:24;;;;;;;35.60;14.78;;;;;;;-1.80;100.00;98686.93;4115965;85;44433;-81
2021/01/27 00:10:28;;;;;;;39.60;16.17;;;;;;;-1.63;100.00;98683.37;4128980;85;44433;-81
2021/01/27 00:16:30;;;;;;;38.23;15.10;;;;;;;-1.50;100.00;98684.70;4124491;85;44433;-81
2021/01/27 00:22:33;;;;;;;42.17;17.25;;;;;;;-1.44;100.00;98683.56;4124633;85;44449;-81
2021/01/27 00:28:36;;;;;;;42.55;16.95;;;;;;;-1.52;100.00;98688.81;4124778;85;44473;-80
2021/01/27 00:34:38;;;;;;;40.88;15.23;;;;;;;-1.65;100.00;98681.39;4123838;85;44434;-80
2021/01/27 00:40:40;;;;;;;33.05;14.07;;;;;;;-1.46;100.00;98686.86;4057639;86;44108;-80
2021/01/27 00:53:48;;;;;;;34.98;14.45;;;;;;;-1.69;100.00;98670.34;4055367;87;44118;-81
2021/01/27 01:14:15;;;;;;;34.98;14.07;;;;;;;-1.48;100.00;98655.04;4489243;77;248319;-81
2021/01/27 01:21:47;;;;;;;31.27;13.30;;;;;;;-1.36;100.00;98666.11;4494199;78;274526;-79
2021/01/27 01:35:12;;;;;;;26.55;12.30;;;;;;;-1.32;100.00;98656.87;3835671;91;43231;-78
2021/01/27 02:22:01;;;;;;;27.58;11.55;;;;;;;-1.34;100.00;98664.97;4365902;80;243471;-80
2021/01/27 02:50:44;;;;;;;20.52;9.03;;;;;;;-1.48;100.00;98642.69;3940161;88;28579;-79
2021/01/27 02:57:26;;;;;;;20.40;9.35;;;;;;;-1.42;100.00;98646.48;4367679;79;84988;-81
2021/01/27 03:03:43;;;;;;;20.23;8.80;;;;;;;-1.42;100.00;98651.77;4325901;80;43928;-80
2021/01/27 03:09:57;;;;;;;18.37;8.98;;;;;;;-1.30;100.00;98657.05;4329922;80;43936;-81
2021/01/27 03:16:06;;;;;;;17.50;7.95;;;;;;;-1.45;100.00;98645.51;4328462;81;43924;-79
2021/01/27 03:22:22;;;;;;;18.95;8.68;;;;;;;-1.34;100.00;98635.95;4324435;81;43953;-82
2021/01/27 03:28:31;;;;;;;18.35;8.15;;;;;;;-1.38;100.00;98628.53;4295687;81;43943;-80
2021/01/27 03:34:41;;;;;;;17.82;8.75;;;;;;;-1.35;100.00;98636.95;4315750;80;43912;-81
2021/01/27 03:40:46;;;;;;;15.58;8.60;;;;;;;-1.29;100.00;98639.42;4326932;81;43951;-81
2021/01/27 03:47:02;;;;;;;16.23;7.45;;;;;;;-1.28;100.00;98639.75;4297651;81;43918;-80
2021/01/27 03:53:09;;;;;;;17.70;8.85;;;;;;;-1.21;100.00;98638.08;4327372;80;43924;-81
2021/01/27 03:59:13;;;;;;;18.75;8.88;;;;;;;-1.15;100.00;98645.34;4294584;80;43954;-80
2021/01/27 04:05:15;;;;;;;16.93;8.40;;;;;;;-1.17;100.00;98647.33;4329477;81;43954;-80
2021/01/27 04:11:17;;;;;;;16.00;7.50;;;;;;;-1.09;100.00;98643.86;4315248;80;43963;-80
2021/01/27 04:17:31;;;;;;;15.10;7.85;;;;;;;-1.06;100.00;98634.28;4297712;80;43971;-81
2021/01/27 04:23:33;;;;;;;14.15;7.80;;;;;;;-1.09;100.00;98641.22;4323843;82;43915;-80
2021/01/27 04:29:36;;;;;;;16.87;8.43;;;;;;;-1.08;100.00;98643.38;4332439;80;43955;-80
2021/01/27 04:35:39;;;;;;;14.68;8.35;;;;;;;-1.16;100.00;98648.97;4320912;80;43983;-80
2021/01/27 04:41:41;;;;;;;15.68;8.10;;;;;;;-1.14;100.00;98640.39;4294325;82;43972;-80
2021/01/27 04:47:58;;;;;;;13.60;7.90;;;;;;;-1.17;100.00;98630.66;4292218;81;43985;-80
2021/01/27 04:54:30;;;;;;;16.02;8.10;;;;;;;-1.24;100.00;98631.82;4303931;80;43920;-80
2021/01/27 05:00:52;;;;;;;18.77;9.30;;;;;;;-1.29;100.00;98626.23;4293573;82;43948;-79
2021/01/27 05:07:03;;;;;;;18.90;9.45;;;;;;;-1.28;100.00;98632.64;4302620;80;43927;-80
2021/01/27 05:13:42;;;;;;;18.20;9.50;;;;;;;-1.28;100.00;98630.52;4333727;80;43975;-80
2021/01/27 05:19:45;;;;;;;15.83;8.28;;;;;;;-1.15;100.00;98637.91;4307039;82;43939;-81
2021/01/27 05:26:01;;;;;;;18.98;10.15;;;;;;;-1.12;100.00;98639.73;4309580;80;44425;-81
2021/01/27 05:32:18;;;;;;;18.07;9.00;;;;;;;-1.08;100.00;98641.55;4300054;80;43927;-81
2021/01/27 05:38:29;;;;;;;17.87;9.40;;;;;;;-1.05;100.00;98635.13;4313492;81;43950;-79
2021/01/27 05:44:32;;;;;;;18.77;9.60;;;;;;;-1.03;100.00;98635.29;4315311;80;43981;-79
2021/01/27 05:50:36;;;;;;;15.75;8.43;;;;;;;-1.07;100.00;98639.23;4334570;82;43943;-79
2021/01/27 05:56:39;;;;;;;16.97;9.43;;;;;;;-1.19;100.00;98641.88;4329586;80;43948;-79
2021/01/27 06:02:43;;;;;;;17.73;8.68;;;;;;;-1.20;100.00;98636.28;4356634;81;43985;-79
2021/01/27 06:08:52;;;;;;;16.57;8.50;;;;;;;-1.23;100.00;98648.48;4311604;81;43947;-79
2021/01/27 06:15:15;;;;;;;19.73;9.20;;;;;;;-1.16;100.00;98650.30;4320607;80;43981;-79
2021/01/27 06:21:31;;;;;;;18.10;9.78;;;;;;;-1.16;100.00;98653.41;4362397;81;43940;-79
2021/01/27 06:28:09;;;;;;;18.65;9.18;;;;;;;-1.14;100.00;98658.86;4302059;81;43928;-79
2021/01/27 06:34:29;;;;;;;22.13;10.63;;;;;;;-1.09;100.00;98657.53;4332900;80;44454;-80
2021/01/27 06:40:36;;;;;;;19.30;9.58;;;;;;;-1.05;100.00;98654.91;4308242;81;43936;-79
2021/01/27 06:47:18;;;;;;;18.45;8.80;;;;;;;-1.03;100.00;98663.48;4310898;81;43952;-80
2021/01/27 06:53:42;;;;;;;22.27;11.03;;;;;;;-1.01;100.00;98658.86;4322204;80;44471;-83
2021/01/27 07:00:15;;;;;;;23.67;11.35;;;;;;;-1.00;100.00;98661.34;4324568;82;42853;-81
2021/01/27 07:06:36;;;;;;;21.10;10.18;;;;;;;-0.98;100.00;98669.11;4315186;82;44496;-80
2021/01/27 07:12:42;;;;;;;24.10;12.13;;;;;;;-0.92;100.00;98672.38;4309681;80;43833;-81
2021/01/27 07:19:09;;;;;;;25.68;12.65;;;;;;;-0.82;100.00;98672.70;4296404;80;43801;-80
2021/01/27 07:25:33;;;;;;;26.35;13.95;;;;;;;-0.75;100.00;98677.66;4325066;82;42944;-78
2021/01/27 07:31:46;;;;;;;26.80;13.03;;;;;;;-0.68;100.00;98688.38;4301589;82;28586;-78
2021/01/27 07:38:01;;;;;;;24.37;12.90;;;;;;;-0.68;100.00;98677.81;4331358;80;43784;-78
2021/01/27 07:44:10;;;;;;;24.87;14.25;;;;;;;-0.60;100.00;98684.41;4335781;80;43721;-75
2021/01/27 07:50:16;;;;;;;28.65;13.93;;;;;;;-0.48;100.00;98683.55;4177322;85;43567;-76
2021/01/27 07:56:49;;;;;;;28.70;14.03;;;;;;;-0.43;100.00;98686.01;4176648;84;43394;-76
2021/01/27 08:03:06;;;;;;;27.75;13.13;;;;;;;-0.29;100.00;98684.49;4203390;84;43459;-77
2021/01/27 08:09:09;;;;;;;29.75;14.15;;;;;;;-0.15;100.00;98683.48;4191840;84;43414;-76
2021/01/27 08:15:16;;;;;;;30.68;13.93;;;;;;;-0.05;100.00;98690.72;4204847;84;44097;-77
2021/01/27 08:21:28;;;;;;;31.33;14.73;;;;;;;0.00;100.00;98700.78;4203685;84;44116;-74
2021/01/27 08:27:33;;;;;;;28.62;14.87;;;;;;;-0.02;100.00;98702.25;4183472;83;43404;-76
2021/01/27 08:33:50;;;;;;;28.80;14.43;;;;;;;0.08;100.00;98711.81;4183590;83;43437;-76
2021/01/27 08:40:31;;;;;;;32.13;14.60;;;;;;;0.03;100.00;98703.55;4208774;84;44123;-77
2021/01/27 08:46:45;;;;;;;30.08;14.85;;;;;;;0.20;100.00;98701.17;4198047;84;44114;-77
2021/01/27 08:52:49;;;;;;;25.95;14.18;;;;;;;0.32;100.00;98703.44;4209694;84;43072;-76
2021/01/27 08:59:28;;;;;;;29.72;14.55;;;;;;;0.53;100.00;98707.62;4249231;82;43449;-77
2021/01/27 09:05:39;;;;;;;32.48;14.58;;;;;;;0.60;100.00;98710.90;4286995;82;44114;-76
2021/01/27 09:11:42;;;;;;;31.52;14.90;;;;;;;0.73;100.00;98707.66;4256500;82;44092;-77
2021/01/27 09:17:46;;;;;;;28.65;15.15;;;;;;;0.52;100.00;98721.01;4273945;82;43401;-76
2021/01/27 09:24:11;;;;;;;29.82;14.13;;;;;;;0.33;100.00;98726.23;4242712;82;28642;-76
2021/01/27 09:30:15;;;;;;;30.25;13.68;;;;;;;0.29;100.00;98722.30;4291293;82;28608;-76
2021/01/27 09:36:24;;;;;;;28.15;13.18;;;;;;;0.37;100.00;98728.87;4289525;82;28568;-78
2021/01/27 09:42:29;;;;;;;22.87;11.25;;;;;;;0.50;100.00;98718.55;4272034;82;44458;-77
2021/01/27 09:48:32;;;;;;;18.07;8.73;;;;;;;0.85;100.00;98711.57;4264806;82;28586;-77
2021/01/27 09:54:37;;;;;;;16.42;8.00;;;;;;;1.05;100.00;98718.53;4246117;82;28581;-79
2021/01/27 10:00:48;;;;;;;16.20;7.20;;;;;;;1.04;100.00;98712.91;4156390;84;43944;-79
2021/01/27 10:13:37;;;;;;;8.38;4.10;;;;;;;1.04;100.00;98722.66;4618002;76;85880;-79
2021/01/27 10:19:52;;;;;;;8.20;4.30;;;;;;;0.99;100.00;98724.55;4512213;78;28558;-78
2021/01/27 10:25:56;;;;;;;10.13;4.30;;;;;;;1.17;100.00;98722.08;4393935;80;28677;-76
2021/01/27 10:32:24;;;;;;;9.50;4.17;;;;;;;1.14;100.00;98720.59;4371200;81;28575;-77
2021/01/27 10:38:26;;;;;;;9.25;4.67;;;;;;;1.15;100.00;98718.30;4369729;81;28574;-77
2021/01/27 10:44:34;;;;;;;10.23;4.90;;;;;;;0.87;100.00;98727.25;4332063;80;28535;-76
2021/01/27 10:50:46;;;;;;;12.43;6.33;;;;;;;1.00;100.00;98725.36;4369441;81;28614;-77
2021/01/27 10:56:53;;;;;;;15.38;7.28;;;;;;;1.21;100.00;98720.74;4367946;81;28552;-77
2021/01/27 11:02:56;;;;;;;18.62;8.45;;;;;;;1.08;100.00;98718.68;4371338;81;28563;-77
2021/01/27 11:08:59;;;;;;;16.45;8.15;;;;;;;1.25;100.00;98720.20;4353424;80;28641;-77
2021/01/27 11:15:01;;;;;;;15.63;8.03;;;;;;;1.21;100.00;98716.77;4343612;80;28614;-77
2021/01/27 11:21:06;;;;;;;14.65;6.65;;;;;;;1.18;100.00;98718.42;4349368;80;28631;-77
2021/01/27 11:27:08;;;;;;;15.88;7.08;;;;;;;1.18;100.00;98707.83;4346208;80;28634;-77
2021/01/27 11:33:11;;;;;;;16.80;7.25;;;;;;;0.88;100.00;98709.05;4353594;81;28587;-78
2021/01/27 11:39:15;;;;;;;15.53;7.83;;;;;;;0.65;100.00;98715.16;4354919;80;28602;-80
2021/01/27 11:45:20;;;;;;;11.33;5.87;;;;;;;0.54;100.00;98709.78;4344774;80;28656;-80
2021/01/27 11:51:22;;;;;;;12.25;6.10;;;;;;;0.48;100.00;98717.08;4358033;81;28606;-78
2021/01/27 11:57:25;;;;;;;9.10;4.83;;;;;;;0.41;100.00;98716.43;4349426;80;42689;-79
2021/01/27 12:03:28;;;;;;;13.43;6.05;;;;;;;0.25;100.00;98714.69;4351041;81;28560;-81
2021/01/27 12:09:31;;;;;;;11.95;5.50;;;;;;;0.06;100.00;98714.61;4357354;80;43217;-79
2021/01/27 12:15:33;;;;;;;11.25;5.62;;;;;;;-0.01;100.00;98720.25;4377598;80;43272;-79
2021/01/27 12:21:35;;;;;;;12.10;6.20;;;;;;;-0.02;100.00;98720.77;4373257;80;43233;-77
2021/01/27 12:27:38;;;;;;;16.02;7.22;;;;;;;0.01;100.00;98713.48;4382271;80;43968;-79
2021/01/27 12:33:41;;;;;;;12.70;5.67;;;;;;;0.25;100.00;98709.91;4377060;80;43212;-77
2021/01/27 12:39:43;;;;;;;13.30;6.50;;;;;;;0.24;100.00;98717.53;4382496;79;43918;-78
2021/01/27 12:45:45;;;;;;;12.23;5.80;;;;;;;0.45;100.00;98722.72;4374779;80;28578;-78
2021/01/27 12:51:47;;;;;;;11.08;6.25;;;;;;;0.49;100.00;98722.20;4384211;80;28597;-78
2021/01/27 12:57:49;;;;;;;13.53;6.40;;;;;;;0.39;100.00;98718.43;4372166;80;43626;-78
2021/01/27 13:03:51;;;;;;;11.35;5.67;;;;;;;0.37;100.00;98705.08;4306325;81;43261;-78
2021/01/27 13:09:53;;;;;;;11.33;6.03;;;;;;;0.18;100.00;98708.95;4371228;80;43248;-79
2021/01/27 13:15:55;;;;;;;16.30;7.60;;;;;;;0.45;100.00;98718.75;4348702;80;44017;-81
2021/01/27 13:21:59;;;;;;;14.87;6.85;;;;;;;0.37;100.00;98722.27;4362003;80;43986;-80
2021/01/27 13:28:03;;;;;;;14.78;7.37;;;;;;;0.35;100.00;98732.17;4349375;80;43903;-80
2021/01/27 13:34:05;;;;;;;12.07;6.35;;;;;;;0.35;100.00;98738.30;4357874;81;43289;-79
2021/01/27 13:40:09;;;;;;;11.85;4.62;;;;;;;0.45;100.00;98740.72;4356541;80;29021;-80
2021/01/27 13:46:12;;;;;;;15.03;7.58;;;;;;;0.31;100.00;98734.33;4340771;80;43942;-79
2021/01/27 13:52:16;;;;;;;14.23;7.53;;;;;;;0.14;100.00;98744.16;4341415;80;43907;-80
2021/01/27 13:58:18;;;;;;;18.02;7.60;;;;;;;0.38;100.00;98735.30;4354464;80;43962;-78
2021/01/27 14:04:20;;;;;;;17.30;8.08;;;;;;;0.35;100.00;98726.88;4343079;80;43986;-79
2021/01/27 14:10:29;;;;;;;19.70;7.92;;;;;;;0.60;100.00;98732.88;4336201;81;43946;-78
2021/01/27 14:16:34;;;;;;;16.50;8.25;;;;;;;0.43;100.00;98736.11;4346405;80;43919;-79
2021/01/27 14:22:36;;;;;;;16.23;8.08;;;;;;;0.52;100.00;98739.53;4354960;80;43931;-79
2021/01/27 14:28:39;;;;;;;15.83;8.55;;;;;;;0.72;100.00;98741.73;4349550;81;44228;-78
2021/01/27 14:34:41;;;;;;;15.60;7.65;;;;;;;0.64;100.00;98743.45;4360575;80;43918;-78
2021/01/27 14:40:44;;;;;;;24.63;11.48;;;;;;;0.57;100.00;98743.81;4349722;80;43879;-79
2021/01/27 14:46:49;;;;;;;24.57;13.00;;;;;;;0.63;100.00;98748.42;4349899;80;43758;-79
2021/01/27 14:52:51;;;;;;;33.60;15.83;;;;;;;0.55;100.00;98745.30;4341361;80;28569;-78
2021/01/27 14:58:54;;;;;;;28.92;14.75;;;;;;;0.54;100.00;98741.01;4356773;80;43761;-77
2021/01/27 15:04:56;;;;;;;33.70;15.75;;;;;;;0.48;100.00;98731.62;4344251;81;44177;-81
2021/01/27 15:10:58;;;;;;;32.00;15.23;;;;;;;0.28;100.00;98739.98;4337440;81;44167;-78
2021/01/27 15:17:03;;;;;;;37.88;17.30;;;;;;;0.32;100.00;98739.98;4336832;80;44428;-78
2021/01/27 15:23:06;;;;;;;33.70;16.12;;;;;;;0.23;100.00;98741.00;4342330;81;44134;-78
2021/01/27 15:29:09;;;;;;;36.03;16.40;;;;;;;0.23;100.00;98744.45;4333966;80;44455;-78
2021/01/27 15:35:12;;;;;;;35.50;17.17;;;;;;;0.18;100.00;98750.77;4358376;80;44454;-79
2021/01/27 15:41:16;;;;;;;36.65;16.75;;;;;;;0.23;100.00;98751.06;4294436;81;28676;-78
2021/01/27 15:47:19;;;;;;;40.75;18.45;;;;;;;-0.01;100.00;98759.89;4366301;80;44579;-78
2021/01/27 15:53:22;;;;;;;36.45;15.88;;;;;;;0.06;100.00;98753.45;4371141;80;44466;-78
2021/01/27 15:59:25;;;;;;;31.77;13.88;;;;;;;0.11;100.00;98744.50;4369031;80;44099;-78
2021/01/27 16:05:31;;;;;;;38.88;15.95;;;;;;;0.08;100.00;98736.92;4375832;80;44422;-77
2021/01/27 16:11:33;;;;;;;39.85;18.00;;;;;;;-0.01;100.00;98749.32;4368368;80;28631;-78
2021/01/27 16:17:34;;;;;;;36.75;16.25;;;;;;;-0.10;100.00;98750.36;4373304;80;44431;-78
2021/01/27 16:23:38;;;;;;;34.95;15.10;;;;;;;-0.23;100.00;98758.30;4373487;80;44269;-78
2021/01/27 16:29:41;;;;;;;31.48;13.08;;;;;;;-0.24;100.00;98755.84;4371343;80;43388;-77
2021/01/27 16:35:43;;;;;;;29.63;12.58;;;;;;;-0.20;100.00;98751.37;4366770;80;43393;-77
2021/01/27 16:41:52;;;;;;;28.20;12.37;;;;;;;-0.23;100.00;98746.92;4348120;80;43477;-78
2021/01/27 16:47:59;;;;;;;24.02;10.72;;;;;;;-0.27;100.00;98754.83;4320826;81;44491;-78
2021/01/27 16:54:02;;;;;;;24.37;10.88;;;;;;;-0.26;100.00;98753.84;4348727;80;43644;-81
2021/01/27 17:00:14;;;;;;;25.00;10.80;;;;;;;-0.22;100.00;98752.02;4350598;80;42889;-81
2021/01/27 17:06:16;;;;;;;21.75;10.35;;;;;;;-0.21;100.00;98751.53;4356890;80;44447;-79
2021/01/27 17:12:18;;;;;;;21.30;9.95;;;;;;;-0.27;100.00;98754.83;4363439;80;44450;-81
2021/01/27 17:18:22;;;;;;;23.15;10.45;;;;;;;-0.22;100.00;98753.33;4372201;80;44482;-80
2021/01/27 17:24:24;;;;;;;27.75;11.30;;;;;;;-0.22;100.00;98745.41;4378179;80;43459;-82
2021/01/27 17:30:27;;;;;;;22.42;10.58;;;;;;;-0.16;100.00;98743.91;4380844;80;44442;-82
2021/01/27 17:36:32;;;;;;;26.05;11.60;;;;;;;-0.17;100.00;98747.06;4374207;80;28629;-80
2021/01/27 17:42:34;;;;;;;25.02;11.70;;;;;;;-0.19;100.00;98752.18;4376144;80;43654;-81
2021/01/27 17:48:36;;;;;;;26.35;11.70;;;;;;;-0.24;100.00;98754.52;4394520;80;43208;-80
2021/01/27 17:54:38;;;;;;;26.68;11.08;;;;;;;-0.22;100.00;98751.20;4385163;80;43062;-80
2021/01/27 18:00:40;;;;;;;31.80;14.58;;;;;;;-0.26;100.00;98741.47;4306409;81;44258;-81
2021/01/27 18:06:42;;;;;;;34.75;14.15;;;;;;;-0.44;100.00;98743.80;4375065;80;44228;-80
2021/01/27 18:12:46;;;;;;;31.60;14.13;;;;;;;-0.36;100.00;98735.53;4373648;80;44144;-80
2021/01/27 18:18:50;;;;;;;29.55;12.90;;;;;;;-0.44;100.00;98740.34;4339835;81;43444;-80
2021/01/27 18:24:52;;;;;;;27.67;12.43;;;;;;;-0.44;100.00;98739.02;4363594;80;43409;-80
2021/01/27 18:30:55;;;;;;;27.77;12.10;;;;;;;-0.31;100.00;98738.00;4385644;80;43453;-80
2021/01/27 18:36:58;;;;;;;25.40;12.45;;;;;;;-0.31;100.00;98736.68;4344626;80;43734;-80
2021/01/27 18:43:01;;;;;;;29.85;12.80;;;;;;;-0.43;100.00;98734.88;4341040;80;43421;-81
2021/01/27 18:49:06;;;;;;;29.15;12.53;;;;;;;-0.34;100.00;98726.46;4352470;80;43406;-79
2021/01/27 18:55:11;;;;;;;26.87;12.60;;;;;;;-0.39;100.00;98720.84;4350146;80;28586;-79
2021/01/27 19:01:13;;;;;;;29.37;13.53;;;;;;;-0.50;100.00;98726.47;4342440;81;36595;-80
2021/01/27 19:07:16;;;;;;;30.35;13.38;;;;;;;-0.57;100.00;98724.52;4363386;80;43386;-79
2021/01/27 19:13:18;;;;;;;32.55;13.88;;;;;;;-0.49;100.00;98725.48;4360704;80;44125;-79
2021/01/27 19:19:20;;;;;;;32.10;13.55;;;;;;;-0.61;100.00;98724.50;4384882;80;44150;-79
2021/01/27 19:25:26;;;;;;;32.90;12.82;;;;;;;-0.63;100.00;98720.37;4387162;80;44135;-79
2021/01/27 19:31:28;;;;;;;32.65;13.25;;;;;;;-0.56;100.00;98722.69;4308479;81;44140;-80
2021/01/27 19:37:30;;;;;;;30.32;12.73;;;;;;;-0.47;100.00;98726.13;4390094;80;43733;-78
2021/01/27 19:43:33;;;;;;;31.02;14.25;;;;;;;-0.50;100.00;98728.63;4379401;80;44076;-79
2021/01/27 19:49:35;;;;;;;35.63;14.03;;;;;;;-0.44;100.00;98736.38;4376531;80;44322;-79
2021/01/27 19:55:37;;;;;;;33.58;13.75;;;;;;;-0.48;100.00;98733.25;4298600;81;44120;-79
2021/01/27 20:01:39;;;;;;;31.85;14.18;;;;;;;-0.54;100.00;98725.17;4382955;80;44099;-79
2021/01/27 20:07:42;;;;;;;34.53;13.68;;;;;;;-0.46;100.00;98734.41;4380783;80;44113;-80
2021/01/27 20:13:44;;;;;;;36.15;13.98;;;;;;;-0.50;100.00;98739.67;4374093;80;44323;-79
2021/01/27 20:19:46;;;;;;;40.17;16.87;;;;;;;-0.50;100.00;98729.95;4381729;80;44462;-80
2021/01/27 20:25:50;;;;;;;36.77;14.83;;;;;;;-0.58;100.00;98729.95;4298323;81;44538;-78
2021/01/27 20:31:53;;;;;;;34.23;14.93;;;;;;;-0.55;100.00;98734.09;4344732;80;44100;-78
2021/01/27 20:37:56;;;;;;;37.00;14.98;;;;;;;-0.65;100.00;98728.48;4362444;80;44482;-78
2021/01/27 20:43:59;;;;;;;42.33;17.07;;;;;;;-0.82;100.00;98730.30;4377234;80;44471;-77
2021/01/27 20:50:07;;;;;;;38.20;15.80;;;;;;;-0.86;100.00;98732.92;4372936;81;44434;-77
2021/01/27 20:56:15;;;;;;;40.10;16.50;;;;;;;-0.87;100.00;98733.44;4384100;80;44446;-83
2021/01/27 21:02:17;;;;;;;40.88;18.12;;;;;;;-0.91;100.00;98729.97;4325109;81;44473;-78
2021/01/27 21:08:20;;;;;;;41.40;18.70;;;;;;;-1.02;100.00;98737.22;4382615;80;43772;-78
2021/01/27 21:14:22;;;;;;;47.43;19.57;;;;;;;-1.10;100.00;98733.72;4382153;80;43752;-77
2021/01/27 21:20:29;;;;;;;49.93;20.57;;;;;;;-1.25;100.00;98742.29;4356070;81;44455;-78
2021/01/27 21:26:31;;;;;;;50.85;20.30;;;;;;;-1.31;100.00;98741.13;4353440;80;43586;-77
2021/01/27 21:32:33;;;;;;;50.05;21.10;;;;;;;-1.39;100.00;98734.50;4304870;81;44434;-77
2021/01/27 21:38:35;;;;;;;55.23;22.42;;;;;;;-1.32;100.00;98739.95;4373257;80;44150;-79
2021/01/27 21:44:38;;;;;;;54.98;21.73;;;;;;;-1.26;100.00;98737.49;4377091;79;44100;-78
2021/01/27 21:50:47;;;;;;;56.37;23.10;;;;;;;-1.30;100.00;98730.06;4284894;81;44086;-78
2021/01/27 21:56:48;;;;;;;55.15;22.87;;;;;;;-1.23;100.00;98729.75;4333910;80;44116;-78
2021/01/27 22:02:51;;;;;;;59.20;24.92;;;;;;;-1.32;100.00;98726.29;4332795;80;43339;-78
2021/01/27 22:08:54;;;;;;;60.00;23.85;;;;;;;-1.22;100.00;98726.13;4325256;80;44159;-78
2021/01/27 22:14:57;;;;;;;55.48;23.10;;;;;;;-1.28;100.00;98726.28;4302765;80;44081;-79
2021/01/27 22:20:59;;;;;;;54.20;22.77;;;;;;;-1.29;100.00;98729.91;4326518;81;44077;-79
2021/01/27 22:27:02;;;;;;;55.12;22.35;;;;;;;-1.17;100.00;98729.12;4313350;81;44126;-80
2021/01/27 22:33:04;;;;;;;52.90;23.10;;;;;;;-1.09;100.00;98732.73;4297499;81;44130;-81
2021/01/27 22:39:07;;;;;;;51.35;22.50;;;;;;;-1.01;100.00;98728.79;4298428;81;43588;-80
2021/01/27 22:45:11;;;;;;;57.00;22.35;;;;;;;-1.21;100.00;98723.81;4309813;81;44101;-80
2021/01/27 22:51:13;;;;;;;57.98;24.23;;;;;;;-1.13;100.00;98727.80;4316244;81;44077;-81
2021/01/27 22:57:15;;;;;;;65.37;24.98;;;;;;;-0.93;100.00;98728.80;4304320;81;43773;-83
2021/01/27 23:03:22;;;;;;;74.00;28.70;;;;;;;-0.83;100.00;98729.14;4308951;81;44109;-80
2021/01/27 23:09:26;;;;;;;65.22;26.90;;;;;;;-0.94;100.00;98726.31;4325669;81;43327;-80
2021/01/27 23:15:33;;;;;;;70.10;28.07;;;;;;;-0.86;100.00;98723.20;4350460;80;44081;-80
2021/01/27 23:21:35;;;;;;;72.95;29.63;;;;;;;-0.77;100.00;98723.20;4350679;80;44105;-80
2021/01/27 23:27:38;;;;;;;76.02;29.45;;;;;;;-1.00;100.00;98717.24;4352347;80;43248;-80
2021/01/27 23:33:43;;;;;;;77.87;31.40;;;;;;;-0.85;100.00;98709.02;4353328;80;43406;-81
2021/01/27 23:39:45;;;;;;;77.65;30.92;;;;;;;-0.98;100.00;98708.69;4362649;80;28631;-78
2021/01/27 23:45:49;;;;;;;78.40;31.82;;;;;;;-1.01;100.00;98705.04;4350408;80;43769;-78
2021/01/27 23:51:53;;;;;;;83.17;31.77;;;;;;;-1.01;100.00;98699.28;4336243;80;28596;-78
2021/01/27 23:57:56;;;;;;;78.97;31.30;;;;;;;-1.05;100.00;98699.27;4369974;80;42514;-79
